Time;durP1;ratioP1;P1;durP2;ratioP2;P2;SDS_P1;SDS_P2;PMS_P1;PMS_P2;Temp;Humidity;BMP_temperature;BMP_pressure;BME280_temperature;BME280_humidity;BME280_pressure;Samples;Min_cycle;Max_cycle;Signal;HPM_P1;HPM_P2
2023/06/12 00:01:06;;;;;;;5.43;5.00;;;28.30;46.40;;;;;;5023692;28;20468;-71
2023/06/12 00:03:35;;;;;;;5.20;4.77;;;28.30;45.90;;;;;;5009616;28;20445;-71
2023/06/12 00:06:05;;;;;;;5.37;4.97;;;28.30;45.90;;;;;;5029264;28;20464;-71
2023/06/12 00:08:35;;;;;;;5.53;4.93;;;28.30;45.90;;;;;;5026549;28;20802;-71
2023/06/12 00:11:07;;;;;;;5.33;4.93;;;28.30;45.90;;;;;;5029101;28;20475;-71
2023/06/12 00:13:35;;;;;;;4.97;4.67;;;28.30;46.00;;;;;;5021472;28;20494;-71
2023/06/12 00:16:04;;;;;;;5.20;4.77;;;28.30;46.00;;;;;;5031993;28;20452;-71
2023/06/12 00:18:41;;;;;;;5.67;5.27;;;28.30;45.80;;;;;;5035218;28;20536;-71
2023/06/12 00:21:11;;;;;;;4.90;4.60;;;28.20;45.90;;;;;;5033214;28;20475;-70
2023/06/12 00:23:42;;;;;;;5.67;5.17;;;28.20;45.80;;;;;;5014314;28;20464;-71
2023/06/12 00:26:10;;;;;;;5.80;5.40;;;28.20;45.90;;;;;;5032807;28;20471;-71
2023/06/12 00:28:43;;;;;;;6.10;5.70;;;28.20;45.90;;;;;;5005083;28;20452;-70
2023/06/12 00:31:12;;;;;;;6.30;5.90;;;28.20;45.80;;;;;;5019090;28;20484;-72
2023/06/12 00:33:41;;;;;;;4.93;4.60;;;28.20;45.90;;;;;;5027346;28;20431;-71
2023/06/12 00:36:12;;;;;;;5.77;5.37;;;28.20;45.90;;;;;;5032051;28;20496;-71
2023/06/12 00:38:42;;;;;;;5.57;5.17;;;28.20;45.90;;;;;;5020341;28;20420;-72
2023/06/12 00:41:10;;;;;;;5.87;5.40;;;28.20;46.00;;;;;;5013404;28;20877;-71
2023/06/12 00:43:40;;;;;;;5.30;4.90;;;28.20;46.50;;;;;;5034773;28;20441;-70
2023/06/12 00:46:10;;;;;;;5.00;4.70;;;28.20;46.10;;;;;;5042367;28;20599;-71
2023/06/12 00:48:40;;;;;;;5.10;4.80;;;28.20;46.30;;;;;;5025661;28;20999;-71
2023/06/12 00:51:09;;;;;;;5.60;5.20;;;28.20;46.20;;;;;;5010809;28;20472;-71
2023/06/12 00:53:38;;;;;;;5.40;5.00;;;28.20;46.20;;;;;;5018525;28;20445;-72
2023/06/12 00:56:08;;;;;;;5.83;5.33;;;28.20;46.50;;;;;;5020958;28;20458;-71
2023/06/12 00:58:36;;;;;;;4.90;4.60;;;28.20;46.20;;;;;;5032906;28;20508;-70
2023/06/12 01:01:05;;;;;;;5.23;4.83;;;28.20;46.10;;;;;;5031954;28;20730;-71
2023/06/12 01:03:34;;;;;;;5.20;4.80;;;28.20;46.20;;;;;;5027733;28;20437;-72
2023/06/12 01:06:09;;;;;;;5.17;4.80;;;28.20;46.20;;;;;;5035844;28;20460;-71
2023/06/12 01:08:46;;;;;;;6.40;5.90;;;28.20;46.30;;;;;;5025436;28;20437;-70
2023/06/12 01:11:18;;;;;;;5.17;4.77;;;28.20;46.20;;;;;;5017390;28;20486;-71
2023/06/12 01:13:47;;;;;;;5.57;5.17;;;28.20;46.30;;;;;;5036122;28;20435;-71
2023/06/12 01:16:17;;;;;;;5.70;5.30;;;28.10;46.30;;;;;;5016493;28;21011;-71
2023/06/12 01:18:46;;;;;;;5.20;4.80;;;28.10;46.30;;;;;;5022068;28;20808;-71
2023/06/12 01:21:18;;;;;;;5.43;5.03;;;28.10;46.20;;;;;;5024263;28;20461;-71
2023/06/12 01:24:21;;;;;;;5.00;4.70;;;28.10;46.30;;;;;;5030846;28;20840;-72
2023/06/12 01:27:25;;;;;;;5.37;4.97;;;28.10;46.20;;;;;;5035556;28;20534;-69
2023/06/12 01:30:33;;;;;;;5.20;4.90;;;28.10;46.20;;;;;;5018863;28;20436;-70
2023/06/12 01:33:07;;;;;;;4.80;4.50;;;28.10;46.20;;;;;;4982789;28;20480;-72
2023/06/12 01:35:40;;;;;;;4.90;4.50;;;28.10;46.30;;;;;;5016012;28;20478;-71
2023/06/12 01:38:16;;;;;;;4.60;4.30;;;28.10;46.30;;;;;;5021083;28;20440;-71
2023/06/12 01:40:48;;;;;;;4.77;4.47;;;28.10;46.40;;;;;;5027845;28;20468;-71
2023/06/12 01:43:17;;;;;;;5.60;5.20;;;28.10;46.40;;;;;;5021297;28;20532;-71
2023/06/12 01:45:46;;;;;;;5.60;5.10;;;28.10;46.40;;;;;;5019442;28;20487;-72
2023/06/12 01:48:16;;;;;;;5.00;4.60;;;28.10;46.40;;;;;;5030010;28;20451;-71
2023/06/12 01:50:45;;;;;;;4.93;4.63;;;28.10;46.40;;;;;;5014040;28;20494;-71
2023/06/12 01:53:15;;;;;;;4.30;4.00;;;28.10;46.40;;;;;;5016800;28;20925;-71
2023/06/12 01:55:44;;;;;;;4.60;4.30;;;28.10;46.50;;;;;;5019447;28;21047;-71
2023/06/12 01:58:14;;;;;;;5.70;5.30;;;28.10;46.50;;;;;;5032498;28;20494;-71
2023/06/12 02:01:08;;;;;;;4.93;4.53;;;28.00;46.60;;;;;;5032162;28;20817;-71
2023/06/12 02:03:41;;;;;;;4.70;4.40;;;28.00;46.40;;;;;;5018234;28;20437;-70
2023/06/12 02:06:10;;;;;;;5.07;4.77;;;28.00;46.40;;;;;;5021397;28;20485;-71
2023/06/12 02:08:38;;;;;;;5.07;4.77;;;28.00;46.50;;;;;;5029993;28;20429;-69
2023/06/12 02:11:07;;;;;;;5.23;4.83;;;28.00;46.60;;;;;;5041242;28;20968;-71
2023/06/12 02:13:35;;;;;;;5.07;4.67;;;28.00;46.50;;;;;;5009765;28;20523;-71
2023/06/12 02:16:05;;;;;;;5.27;4.83;;;28.00;46.50;;;;;;5028814;28;20506;-71
2023/06/12 02:18:33;;;;;;;5.23;4.83;;;28.00;46.60;;;;;;5009655;28;20460;-71
2023/06/12 02:21:03;;;;;;;5.20;4.80;;;28.00;46.60;;;;;;5012297;28;20464;-71
2023/06/12 02:23:32;;;;;;;5.40;5.00;;;28.00;46.60;;;;;;5041635;28;20434;-71
2023/06/12 02:26:01;;;;;;;5.80;5.40;;;28.00;46.60;;;;;;5023649;28;20480;-70
2023/06/12 02:28:30;;;;;;;4.87;4.57;;;28.00;46.60;;;;;;5044213;28;20434;-71
2023/06/12 02:31:00;;;;;;;5.10;4.70;;;28.00;46.70;;;;;;5028569;28;20486;-71
2023/06/12 02:33:33;;;;;;;4.77;4.37;;;28.00;46.70;;;;;;5026161;28;20476;-71
2023/06/12 02:36:07;;;;;;;5.90;5.40;;;28.00;46.80;;;;;;5031847;28;20861;-72
2023/06/12 02:38:36;;;;;;;5.37;5.00;;;27.90;46.60;;;;;;5037229;28;20460;-70
2023/06/12 02:41:11;;;;;;;5.10;4.80;;;27.90;48.00;;;;;;5021277;28;20448;-72
2023/06/12 02:43:41;;;;;;;5.80;5.40;;;27.90;46.70;;;;;;5009698;28;21091;-70
2023/06/12 02:46:09;;;;;;;4.93;4.60;;;27.90;46.70;;;;;;5006593;28;20563;-71
2023/06/12 02:48:38;;;;;;;4.87;4.57;;;27.90;45.60;;;;;;5021237;28;20436;-71
2023/06/12 02:51:07;;;;;;;5.40;5.00;;;27.90;46.70;;;;;;5033489;28;20444;-71
2023/06/12 02:53:36;;;;;;;4.50;4.20;;;27.90;46.70;;;;;;5018546;28;20461;-71
2023/06/12 02:56:05;;;;;;;4.50;4.20;;;27.80;46.70;;;;;;5019284;28;20637;-72
2023/06/12 02:58:34;;;;;;;4.53;4.23;;;27.90;46.70;;;;;;5021888;28;20436;-71
2023/06/12 03:01:04;;;;;;;5.10;4.70;;;27.80;46.70;;;;;;5030124;28;20833;-71
2023/06/12 03:03:35;;;;;;;5.00;4.63;;;27.80;46.80;;;;;;5027578;28;20437;-72
2023/06/12 03:06:12;;;;;;;5.17;4.87;;;27.80;46.80;;;;;;5034556;28;20463;-72
2023/06/12 03:08:41;;;;;;;4.90;4.50;;;27.80;47.00;;;;;;5017901;28;20830;-71
2023/06/12 03:11:12;;;;;;;5.43;5.03;;;27.80;46.80;;;;;;5018973;28;20456;-71
2023/06/12 03:13:40;;;;;;;4.63;4.33;;;27.80;46.80;;;;;;5030988;28;20472;-72
2023/06/12 03:16:09;;;;;;;4.57;4.27;;;27.80;46.90;;;;;;5029773;28;20451;-71
2023/06/12 03:18:38;;;;;;;6.83;5.30;;;27.80;46.90;;;;;;5035340;28;20433;-71
2023/06/12 03:21:07;;;;;;;4.93;4.53;;;27.80;47.00;;;;;;5041869;28;20432;-72
2023/06/12 03:23:37;;;;;;;4.87;4.47;;;27.80;46.90;;;;;;5031143;28;20441;-71
2023/06/12 03:26:06;;;;;;;4.70;4.40;;;27.80;47.00;;;;;;5025775;28;20518;-71
2023/06/12 03:28:35;;;;;;;4.33;4.03;;;27.80;47.00;;;;;;5035849;28;20818;-72
2023/06/12 03:31:04;;;;;;;4.90;4.40;;;27.80;47.00;;;;;;5018524;28;20806;-71
2023/06/12 03:33:39;;;;;;;5.10;4.70;;;27.80;47.00;;;;;;5026026;28;20671;-71
2023/06/12 03:36:13;;;;;;;4.90;4.57;;;27.80;47.00;;;;;;5034528;28;20484;-71
2023/06/12 03:38:43;;;;;;;5.37;4.97;;;27.80;47.00;;;;;;5008869;28;20497;-72
2023/06/12 03:41:15;;;;;;;4.60;4.30;;;27.80;47.00;;;;;;5015349;28;20952;-70
2023/06/12 03:43:44;;;;;;;4.70;4.33;;;27.70;47.10;;;;;;5019118;28;21008;-72
2023/06/12 03:46:15;;;;;;;5.53;5.13;;;27.70;47.10;;;;;;5017309;28;20482;-71
2023/06/12 03:48:44;;;;;;;4.80;4.40;;;27.70;47.00;;;;;;5019497;28;20882;-70
2023/06/12 03:51:12;;;;;;;4.53;4.17;;;27.70;47.10;;;;;;5022531;28;20806;-70
2023/06/12 03:53:41;;;;;;;5.10;4.70;;;27.70;47.10;;;;;;5022750;28;20499;-70
2023/06/12 03:56:11;;;;;;;5.10;4.70;;;27.70;47.00;;;;;;5034046;28;20472;-71
2023/06/12 03:58:39;;;;;;;4.43;4.13;;;27.70;47.10;;;;;;5006234;28;20917;-71
2023/06/12 04:01:08;;;;;;;4.93;4.53;;;27.70;47.00;;;;;;5021305;28;20502;-71
2023/06/12 04:03:38;;;;;;;4.93;4.60;;;27.70;47.10;;;;;;5017369;28;20994;-71
2023/06/12 04:06:07;;;;;;;4.20;3.80;;;27.70;47.20;;;;;;5042174;28;20483;-71
2023/06/12 04:08:37;;;;;;;4.23;3.93;;;27.70;47.20;;;;;;5042374;28;20440;-71
2023/06/12 04:11:08;;;;;;;4.93;4.53;;;27.60;47.10;;;;;;5016916;28;20436;-71
2023/06/12 04:13:39;;;;;;;4.37;4.07;;;27.60;47.30;;;;;;5009590;28;20472;-71
2023/06/12 04:16:08;;;;;;;4.50;4.10;;;27.60;47.20;;;;;;5036686;28;20474;-70
2023/06/12 04:18:37;;;;;;;4.20;3.90;;;27.60;47.20;;;;;;5038676;28;21060;-71
2023/06/12 04:21:08;;;;;;;5.80;5.30;;;27.60;47.10;;;;;;5025914;28;20477;-71
2023/06/12 04:23:41;;;;;;;4.67;4.37;;;27.60;47.40;;;;;;5041998;28;20993;-71
2023/06/12 04:26:10;;;;;;;5.20;4.60;;;27.60;47.20;;;;;;5021799;28;20588;-71
2023/06/12 04:28:41;;;;;;;4.77;4.37;;;27.60;47.50;;;;;;5010744;28;20510;-71
2023/06/12 04:31:15;;;;;;;4.90;4.50;;;27.60;47.20;;;;;;5013045;28;20836;-71
2023/06/12 04:33:43;;;;;;;4.50;4.10;;;27.60;47.20;;;;;;5020839;28;20461;-71
2023/06/12 04:36:13;;;;;;;4.50;4.20;;;27.60;47.40;;;;;;5021036;28;21026;-71
2023/06/12 04:38:42;;;;;;;4.60;4.20;;;27.60;47.40;;;;;;5009340;28;20437;-72
2023/06/12 04:41:11;;;;;;;4.80;4.40;;;27.50;47.20;;;;;;5026217;28;20963;-71
2023/06/12 04:43:41;;;;;;;4.97;4.60;;;27.60;47.30;;;;;;5022463;28;20516;-71
2023/06/12 04:46:13;;;;;;;4.50;4.10;;;27.50;47.40;;;;;;5023751;28;20472;-71
2023/06/12 04:48:43;;;;;;;4.90;4.30;;;27.60;47.50;;;;;;5038174;28;20451;-71
2023/06/12 04:51:11;;;;;;;4.50;4.10;;;27.50;48.60;;;;;;5026014;28;20543;-72
2023/06/12 04:53:43;;;;;;;4.70;4.30;;;27.50;47.50;;;;;;5046108;28;20472;-71
2023/06/12 04:56:12;;;;;;;4.63;4.33;;;27.50;47.50;;;;;;5021180;28;20563;-71
2023/06/12 04:58:42;;;;;;;4.60;4.30;;;27.50;47.70;;;;;;5026038;28;20441;-71
2023/06/12 05:01:11;;;;;;;4.20;3.90;;;27.50;47.60;;;;;;5016700;28;20527;-71
2023/06/12 05:03:40;;;;;;;4.90;4.60;;;27.50;47.70;;;;;;5017198;28;20449;-72
2023/06/12 05:06:09;;;;;;;4.97;4.57;;;27.50;47.60;;;;;;5027969;28;20460;-71
2023/06/12 05:08:38;;;;;;;4.37;4.07;;;27.50;47.60;;;;;;5039687;28;20455;-71
2023/06/12 05:11:06;;;;;;;4.60;4.30;;;27.50;47.30;;;;;;5036621;28;20450;-71
2023/06/12 05:13:35;;;;;;;4.90;4.50;;;27.50;47.40;;;;;;5043635;28;20464;-71
2023/06/12 05:16:06;;;;;;;4.90;4.60;;;27.50;47.30;;;;;;5019095;28;20472;-72
2023/06/12 05:18:35;;;;;;;4.53;4.13;;;27.50;47.30;;;;;;5039293;28;20439;-71
2023/06/12 05:21:04;;;;;;;4.47;4.17;;;27.50;47.50;;;;;;5028879;28;20645;-71
2023/06/12 05:23:32;;;;;;;5.20;4.70;;;27.50;47.20;;;;;;5036798;28;20438;-71
2023/06/12 05:26:02;;;;;;;5.10;4.60;;;27.50;47.20;;;;;;5039621;28;20906;-71
2023/06/12 05:28:31;;;;;;;4.83;4.43;;;27.50;47.10;;;;;;5018151;28;20467;-71
2023/06/12 05:31:01;;;;;;;5.13;4.73;;;27.50;47.00;;;;;;5017757;28;20445;-71
2023/06/12 05:33:32;;;;;;;4.10;3.80;;;27.50;47.00;;;;;;5019639;28;20468;-71
2023/06/12 05:36:01;;;;;;;5.00;4.50;;;27.50;47.00;;;;;;5028568;28;20476;-71
2023/06/12 05:38:30;;;;;;;5.57;4.73;;;27.50;47.00;;;;;;5034372;28;20952;-71
2023/06/12 05:40:59;;;;;;;4.80;4.50;;;27.50;47.10;;;;;;5029120;28;20450;-68
2023/06/12 05:43:27;;;;;;;5.10;4.80;;;27.50;46.70;;;;;;5018215;28;20816;-68
2023/06/12 05:45:57;;;;;;;4.73;4.33;;;27.50;46.90;;;;;;5026142;28;20530;-66
2023/06/12 05:48:25;;;;;;;4.90;4.50;;;27.50;46.90;;;;;;5025627;28;20888;-68
2023/06/12 05:50:55;;;;;;;4.80;4.50;;;27.50;46.90;;;;;;5029953;28;21056;-68
2023/06/12 05:53:24;;;;;;;4.60;4.20;;;27.50;47.00;;;;;;5019847;28;20448;-68
2023/06/12 05:55:53;;;;;;;4.10;3.80;;;27.50;47.00;;;;;;5012516;28;20492;-68
2023/06/12 05:58:21;;;;;;;5.10;4.70;;;27.50;47.20;;;;;;5016011;28;20443;-68
2023/06/12 06:00:52;;;;;;;3.97;3.67;;;27.50;47.00;;;;;;5029264;28;20520;-68
2023/06/12 06:03:42;;;;;;;4.50;4.17;;;27.40;47.00;;;;;;5025847;28;20558;-68
2023/06/12 06:06:13;;;;;;;4.93;4.50;;;27.50;47.30;;;;;;5009219;28;20523;-68
2023/06/12 06:08:43;;;;;;;5.20;4.80;;;27.40;46.90;;;;;;5022551;28;20525;-68
2023/06/12 06:11:11;;;;;;;6.73;4.77;;;27.40;47.00;;;;;;5038266;28;21031;-68
2023/06/12 06:13:43;;;;;;;4.47;4.17;;;27.40;46.80;;;;;;5018762;28;20477;-69
2023/06/12 06:16:13;;;;;;;5.07;4.67;;;27.40;46.90;;;;;;5033823;28;20496;-67
2023/06/12 06:18:42;;;;;;;4.57;4.17;;;27.50;47.20;;;;;;5024973;28;20453;-68
2023/06/12 06:21:12;;;;;;;4.20;3.90;;;27.50;47.10;;;;;;5027153;28;20448;-67
2023/06/12 06:23:40;;;;;;;5.40;4.90;;;27.50;47.20;;;;;;5035702;28;20444;-67
2023/06/12 06:26:10;;;;;;;4.90;4.50;;;27.40;47.10;;;;;;5013282;28;20491;-68
2023/06/12 06:28:39;;;;;;;4.33;4.03;;;27.50;47.20;;;;;;5014864;28;20436;-67
2023/06/12 06:31:08;;;;;;;4.87;4.47;;;27.50;47.40;;;;;;5021974;28;20444;-68
2023/06/12 06:33:37;;;;;;;5.20;4.80;;;27.40;46.70;;;;;;5032224;28;20457;-68
2023/06/12 06:36:07;;;;;;;4.57;4.27;;;27.40;46.90;;;;;;5038157;28;20464;-67
2023/06/12 06:38:37;;;;;;;5.20;4.70;;;27.40;47.00;;;;;;5041151;28;20898;-68
2023/06/12 06:41:06;;;;;;;4.93;4.63;;;27.40;46.70;;;;;;5034728;28;20440;-68
2023/06/12 06:43:35;;;;;;;5.07;4.67;;;27.40;47.00;;;;;;5019442;28;20448;-68
2023/06/12 06:46:08;;;;;;;5.70;5.30;;;27.40;47.10;;;;;;5027669;28;20482;-68
2023/06/12 06:48:37;;;;;;;5.17;4.67;;;27.40;47.00;;;;;;5015426;28;20484;-68
2023/06/12 06:51:06;;;;;;;4.87;4.47;;;27.40;47.00;;;;;;5031621;28;21032;-68
2023/06/12 06:53:34;;;;;;;5.20;4.80;;;27.40;47.00;;;;;;5017039;28;21016;-68
2023/06/12 06:56:05;;;;;;;5.00;4.40;;;27.40;47.10;;;;;;5022430;28;20457;-67
2023/06/12 06:58:34;;;;;;;4.20;3.90;;;27.40;47.10;;;;;;5032693;28;20474;-68
2023/06/12 07:01:02;;;;;;;5.20;4.80;;;27.40;47.10;;;;;;5030691;28;20459;-67
2023/06/12 07:03:31;;;;;;;4.60;4.30;;;27.40;47.10;;;;;;5032285;28;20713;-67
2023/06/12 07:06:02;;;;;;;5.57;5.17;;;27.40;47.00;;;;;;5027880;28;20472;-68
2023/06/12 07:08:31;;;;;;;4.60;4.30;;;27.30;46.40;;;;;;5036263;28;20449;-68
2023/06/12 07:11:00;;;;;;;5.00;4.70;;;27.40;46.80;;;;;;5011205;28;20441;-67
2023/06/12 07:13:30;;;;;;;6.33;5.00;;;27.30;46.20;;;;;;5040486;28;20446;-68
2023/06/12 07:15:59;;;;;;;4.67;4.27;;;27.30;46.60;;;;;;5022624;28;20471;-68
2023/06/12 07:18:30;;;;;;;5.60;5.20;;;27.40;46.70;;;;;;5033761;28;20528;-67
2023/06/12 07:20:59;;;;;;;5.30;4.80;;;27.40;46.70;;;;;;5013191;28;20449;-67
2023/06/12 07:23:28;;;;;;;4.63;4.33;;;27.40;45.90;;;;;;5015972;28;20548;-67
2023/06/12 07:25:57;;;;;;;5.40;5.00;;;27.30;45.70;;;;;;5023171;28;20850;-67
2023/06/12 07:28:25;;;;;;;5.37;4.90;;;27.30;46.00;;;;;;5006197;28;20447;-68
2023/06/12 07:30:55;;;;;;;4.67;4.30;;;27.30;46.00;;;;;;5011928;28;20930;-68
2023/06/12 07:33:24;;;;;;;4.90;4.37;;;27.30;46.70;;;;;;5015270;28;20539;-65
2023/06/12 07:35:53;;;;;;;4.73;4.33;;;27.40;46.90;;;;;;5014032;28;20473;-67
2023/06/12 07:38:21;;;;;;;4.50;4.20;;;27.30;47.10;;;;;;5023761;28;20513;-68
2023/06/12 07:40:51;;;;;;;4.90;4.50;;;27.30;46.90;;;;;;5015463;28;20455;-71
2023/06/12 07:43:21;;;;;;;5.00;4.60;;;27.30;46.70;;;;;;5018913;28;20441;-72
2023/06/12 07:45:51;;;;;;;4.57;4.27;;;27.30;47.10;;;;;;5032456;28;20467;-71
2023/06/12 07:48:22;;;;;;;4.40;4.10;;;27.30;47.00;;;;;;5010803;28;20501;-70
2023/06/12 07:50:51;;;;;;;5.77;5.27;;;27.30;47.20;;;;;;5016217;28;20454;-71
2023/06/12 07:53:20;;;;;;;4.33;3.93;;;27.30;46.70;;;;;;5037166;28;20819;-67
2023/06/12 07:56:08;;;;;;;5.07;4.57;;;27.30;47.00;;;;;;5025293;28;20483;-68
2023/06/12 07:58:38;;;;;;;5.20;4.70;;;27.30;47.30;;;;;;5015307;28;20490;-68
2023/06/12 08:01:10;;;;;;;4.40;4.10;;;27.30;47.20;;;;;;5027589;28;20445;-67
2023/06/12 08:03:42;;;;;;;4.40;4.10;;;27.30;47.60;;;;;;5035405;28;20445;-67
2023/06/12 08:06:15;;;;;;;5.30;4.90;;;27.40;46.30;;;;;;5029606;28;20560;-67
2023/06/12 08:08:46;;;;;;;7.80;5.00;;;27.40;46.30;;;;;;5013698;28;20492;-68
2023/06/12 08:11:18;;;;;;;5.07;4.67;;;27.40;46.60;;;;;;5020417;28;20758;-68
2023/06/12 08:13:50;;;;;;;6.13;4.93;;;27.40;46.90;;;;;;5033563;28;20452;-67
2023/06/12 08:16:21;;;;;;;5.03;4.63;;;27.40;47.00;;;;;;5038751;28;20483;-67
2023/06/12 08:18:52;;;;;;;7.00;6.37;;;27.30;47.10;;;;;;5037582;28;20501;-68
2023/06/12 08:21:26;;;;;;;9.93;7.00;;;27.30;44.70;;;;;;5020500;28;20578;-67
2023/06/12 08:23:55;;;;;;;7.57;6.27;;;27.10;42.10;;;;;;5029351;28;20919;-68
2023/06/12 08:26:24;;;;;;;9.77;7.37;;;26.80;42.80;;;;;;5020050;28;20522;-68
2023/06/12 08:28:54;;;;;;;9.40;7.50;;;26.90;43.60;;;;;;5013227;28;20452;-68
2023/06/12 08:31:27;;;;;;;7.47;6.63;;;26.90;43.90;;;;;;5016516;28;20565;-67
2023/06/12 08:33:57;;;;;;;7.57;6.97;;;27.00;44.10;;;;;;5016380;28;20559;-66
2023/06/12 08:36:26;;;;;;;6.33;5.77;;;27.10;44.10;;;;;;5021674;28;20483;-71
2023/06/12 08:38:55;;;;;;;7.60;6.90;;;27.10;44.40;;;;;;5017559;28;20955;-71
2023/06/12 08:41:26;;;;;;;6.83;6.23;;;27.10;44.40;;;;;;5034742;28;20504;-71
2023/06/12 08:44:00;;;;;;;6.87;6.27;;;27.20;44.50;;;;;;5018781;28;20462;-71
2023/06/12 08:46:39;;;;;;;7.27;5.63;;;27.20;44.80;;;;;;5018608;28;20870;-72
2023/06/12 08:49:12;;;;;;;6.93;6.33;;;27.20;45.20;;;;;;5026062;28;20903;-71
2023/06/12 08:51:42;;;;;;;6.97;6.47;;;27.20;45.10;;;;;;5036158;28;20456;-71
2023/06/12 08:54:11;;;;;;;7.83;7.13;;;27.20;45.30;;;;;;5034322;28;20447;-71
2023/06/12 08:56:43;;;;;;;7.73;6.30;;;27.20;45.40;;;;;;5025145;28;20476;-71
2023/06/12 08:59:12;;;;;;;7.43;6.50;;;27.20;45.40;;;;;;5010129;28;20462;-71
2023/06/12 09:01:45;;;;;;;7.27;5.73;;;27.20;45.70;;;;;;5034104;28;20591;-71
2023/06/12 09:04:44;;;;;;;7.40;6.70;;;27.20;45.80;;;;;;5019021;28;20433;-71
2023/06/12 09:07:17;;;;;;;7.70;7.00;;;27.30;44.10;;;;;;5014559;28;20587;-71
2023/06/12 09:09:47;;;;;;;7.63;7.03;;;27.30;44.90;;;;;;5017665;28;20498;-71
2023/06/12 09:12:16;;;;;;;7.70;7.10;;;27.20;44.90;;;;;;5024844;28;20471;-70
2023/06/12 09:14:48;;;;;;;6.90;6.33;;;27.20;45.10;;;;;;5033938;28;20428;-71
2023/06/12 09:17:17;;;;;;;6.67;6.17;;;27.20;45.40;;;;;;5030318;28;20574;-71
2023/06/12 09:19:48;;;;;;;7.40;6.70;;;27.20;45.60;;;;;;5029100;28;20440;-71
2023/06/12 09:22:17;;;;;;;6.23;5.73;;;27.20;45.80;;;;;;5019892;28;21000;-71
2023/06/12 09:24:46;;;;;;;7.17;6.60;;;27.20;45.90;;;;;;5033197;28;20451;-71
2023/06/12 09:27:14;;;;;;;6.47;5.97;;;27.20;46.20;;;;;;5041378;28;20479;-71
2023/06/12 09:29:43;;;;;;;6.53;6.03;;;27.20;46.20;;;;;;5021804;28;20480;-70
2023/06/12 09:32:14;;;;;;;6.50;6.00;;;27.20;46.10;;;;;;5034338;28;20483;-71
2023/06/12 09:34:50;;;;;;;6.40;5.93;;;27.20;46.30;;;;;;5042635;28;20447;-71
2023/06/12 09:37:18;;;;;;;6.83;6.23;;;27.20;46.60;;;;;;5021381;28;20488;-71
2023/06/12 09:39:47;;;;;;;6.57;6.07;;;27.20;46.60;;;;;;5019104;28;20948;-71
2023/06/12 09:42:17;;;;;;;6.07;5.60;;;27.20;46.70;;;;;;5014991;28;20508;-71
2023/06/12 09:44:46;;;;;;;6.37;5.87;;;27.20;46.70;;;;;;5033858;28;20528;-70
2023/06/12 09:47:15;;;;;;;6.80;6.30;;;27.20;46.60;;;;;;5020696;28;20879;-72
2023/06/12 09:49:46;;;;;;;6.13;5.63;;;27.20;46.80;;;;;;5017446;28;20491;-71
2023/06/12 09:52:16;;;;;;;5.93;5.43;;;27.20;46.80;;;;;;5038709;28;21130;-71
2023/06/12 09:54:47;;;;;;;6.53;6.03;;;27.20;46.60;;;;;;5041894;28;20428;-71
2023/06/12 09:57:16;;;;;;;6.13;5.63;;;27.20;46.40;;;;;;5019161;28;20481;-69
2023/06/12 09:59:47;;;;;;;6.13;5.50;;;27.20;46.40;;;;;;5038793;28;20795;-70
2023/06/12 10:02:17;;;;;;;6.03;5.53;;;27.20;46.50;;;;;;5020990;28;20472;-71
2023/06/12 10:04:54;;;;;;;5.60;5.20;;;27.30;46.70;;;;;;5035323;28;20459;-71
2023/06/12 10:07:29;;;;;;;6.30;5.80;;;27.30;46.70;;;;;;5019318;28;20483;-71
2023/06/12 10:09:58;;;;;;;6.17;5.67;;;27.20;46.70;;;;;;5025366;28;20982;-71
2023/06/12 10:12:26;;;;;;;6.77;6.27;;;27.30;46.80;;;;;;5019893;28;20484;-71
2023/06/12 10:14:56;;;;;;;6.73;6.23;;;27.20;46.40;;;;;;5017965;28;20535;-71
2023/06/12 10:17:25;;;;;;;5.83;5.33;;;27.30;46.60;;;;;;5035132;28;20476;-72
2023/06/12 10:19:57;;;;;;;5.70;5.30;;;27.30;46.90;;;;;;5024385;28;20464;-71
2023/06/12 10:22:26;;;;;;;5.70;5.30;;;27.30;46.70;;;;;;5021716;28;20487;-71
2023/06/12 10:24:58;;;;;;;5.47;5.07;;;27.30;46.10;;;;;;5029671;28;20554;-70
2023/06/12 10:27:27;;;;;;;6.60;5.90;;;27.30;46.70;;;;;;5028922;28;20505;-71
2023/06/12 10:29:57;;;;;;;6.40;5.93;;;27.20;46.50;;;;;;5021246;28;20976;-72
2023/06/12 10:32:30;;;;;;;6.20;5.73;;;27.30;46.40;;;;;;5023655;28;20484;-71
2023/06/12 10:35:01;;;;;;;5.63;5.23;;;27.30;46.30;;;;;;5023780;28;21078;-71
2023/06/12 10:37:32;;;;;;;6.20;5.80;;;27.30;46.50;;;;;;5017305;28;20472;-71
2023/06/12 10:40:12;;;;;;;5.93;5.43;;;27.20;46.40;;;;;;5019063;28;20558;-71
2023/06/12 10:42:47;;;;;;;5.73;5.33;;;27.30;46.40;;;;;;5008803;28;20484;-71
2023/06/12 10:45:18;;;;;;;6.50;5.33;;;27.30;46.20;;;;;;5012828;28;20498;-71
2023/06/12 10:48:14;;;;;;;5.83;5.43;;;27.30;46.30;;;;;;5018123;28;20480;-70
2023/06/12 10:50:46;;;;;;;5.63;5.23;;;27.30;46.10;;;;;;5010144;28;20445;-71
2023/06/12 10:53:16;;;;;;;5.90;5.37;;;27.30;45.90;;;;;;5017380;28;20444;-71
2023/06/12 10:55:45;;;;;;;7.73;5.73;;;27.30;45.80;;;;;;5023617;28;20543;-71
2023/06/12 10:58:17;;;;;;;5.80;5.40;;;27.30;45.70;;;;;;5033503;28;20471;-70
2023/06/12 11:00:47;;;;;;;6.30;5.87;;;27.30;45.90;;;;;;5034310;28;20558;-70
2023/06/12 11:03:18;;;;;;;6.30;5.80;;;27.30;45.90;;;;;;5029705;28;20448;-70
2023/06/12 11:05:51;;;;;;;6.57;6.07;;;27.30;46.00;;;;;;5007449;28;20921;-71
2023/06/12 11:08:20;;;;;;;5.63;5.23;;;27.30;46.10;;;;;;5024856;28;20559;-72
2023/06/12 11:10:49;;;;;;;5.90;5.50;;;27.30;46.00;;;;;;5018146;28;20449;-71
2023/06/12 11:13:17;;;;;;;5.33;4.87;;;27.30;45.80;;;;;;5015098;28;20441;-71
2023/06/12 11:15:47;;;;;;;6.47;6.00;;;27.30;45.40;;;;;;5013913;28;20467;-71
2023/06/12 11:18:16;;;;;;;6.17;5.67;;;27.30;45.60;;;;;;5021375;28;20465;-71
2023/06/12 11:20:53;;;;;;;6.23;5.80;;;27.30;45.60;;;;;;5024737;28;20475;-71
2023/06/12 11:23:26;;;;;;;6.03;5.43;;;27.40;45.80;;;;;;5023836;28;20517;-71
2023/06/12 11:25:56;;;;;;;6.20;5.77;;;27.40;46.00;;;;;;5032005;28;20461;-72
2023/06/12 11:28:27;;;;;;;5.87;5.37;;;27.30;45.60;;;;;;5026231;28;20425;-70
2023/06/12 11:30:56;;;;;;;6.30;5.80;;;27.40;45.80;;;;;;5026765;28;20964;-71
2023/06/12 11:33:39;;;;;;;5.80;5.30;;;27.40;45.70;;;;;;5024406;28;20431;-71
2023/06/12 11:36:09;;;;;;;5.90;5.50;;;27.40;45.50;;;;;;5027884;28;20522;-71
2023/06/12 11:38:37;;;;;;;6.30;5.80;;;27.40;45.90;;;;;;5037061;28;20490;-71
2023/06/12 11:41:13;;;;;;;5.20;4.80;;;27.40;46.00;;;;;;5018955;28;20475;-70
2023/06/12 11:43:44;;;;;;;5.70;5.30;;;27.40;45.80;;;;;;5022451;28;20487;-71
2023/06/12 11:46:13;;;;;;;5.63;5.23;;;27.40;45.60;;;;;;5014457;28;20552;-70
2023/06/12 11:48:42;;;;;;;6.53;6.03;;;27.40;45.90;;;;;;5016082;28;20476;-71
2023/06/12 11:51:15;;;;;;;5.90;5.50;;;27.40;45.80;;;;;;5019809;28;21024;-71
2023/06/12 11:53:44;;;;;;;5.33;4.93;;;27.40;45.80;;;;;;5022938;28;20452;-71
2023/06/12 11:56:13;;;;;;;6.07;5.57;;;27.40;45.60;;;;;;5021384;28;21089;-71
2023/06/12 11:58:45;;;;;;;6.10;5.70;;;27.40;45.40;;;;;;5025046;28;20504;-71
2023/06/12 12:01:22;;;;;;;5.27;4.87;;;27.40;45.20;;;;;;5015794;28;20523;-71
2023/06/12 12:03:52;;;;;;;4.90;4.50;;;27.40;45.40;;;;;;5032509;28;20493;-71
2023/06/12 12:06:28;;;;;;;5.60;5.10;;;27.40;45.00;;;;;;5017205;28;20484;-71
2023/06/12 12:08:58;;;;;;;6.00;5.50;;;27.40;45.40;;;;;;5021487;28;21019;-71
2023/06/12 12:11:29;;;;;;;6.13;5.63;;;27.40;45.50;;;;;;5020017;28;20247;-71
2023/06/12 12:14:01;;;;;;;6.07;5.60;;;27.50;45.00;;;;;;5028755;28;20448;-71
2023/06/12 12:16:30;;;;;;;7.33;5.83;;;27.50;44.70;;;;;;5017029;28;20473;-70
2023/06/12 12:18:59;;;;;;;5.90;5.50;;;27.50;44.50;;;;;;4996562;28;20452;-71
2023/06/12 12:21:30;;;;;;;6.80;5.73;;;27.50;45.00;;;;;;5024289;28;20524;-71
2023/06/12 12:23:59;;;;;;;6.37;5.87;;;27.50;45.10;;;;;;5032887;28;20779;-71
2023/06/12 12:26:28;;;;;;;6.47;5.97;;;27.50;45.20;;;;;;5019488;28;20492;-70
2023/06/12 12:28:57;;;;;;;6.20;5.60;;;27.50;45.20;;;;;;5035425;28;20428;-71
2023/06/12 12:31:26;;;;;;;6.33;5.83;;;27.50;45.20;;;;;;5024061;28;20444;-71
2023/06/12 12:33:54;;;;;;;6.40;5.90;;;27.50;46.40;;;;;;5025353;28;20440;-70
2023/06/12 12:36:23;;;;;;;5.70;5.30;;;27.50;45.40;;;;;;5019641;28;20464;-71
2023/06/12 12:38:53;;;;;;;5.67;5.20;;;27.50;45.00;;;;;;5033601;28;20549;-71
2023/06/12 12:41:21;;;;;;;5.77;5.37;;;27.50;45.50;;;;;;5040047;28;20944;-71
2023/06/12 12:43:49;;;;;;;6.13;5.63;;;27.50;45.40;;;;;;4997715;28;21127;-70
2023/06/12 12:46:18;;;;;;;5.97;5.47;;;27.60;45.80;;;;;;5012282;28;20473;-71
2023/06/12 12:48:47;;;;;;;5.60;5.10;;;27.50;45.40;;;;;;5020948;28;20441;-71
2023/06/12 12:51:16;;;;;;;5.87;5.47;;;27.50;46.40;;;;;;5024136;28;20442;-71
2023/06/12 12:53:44;;;;;;;5.57;5.17;;;27.50;45.50;;;;;;5021323;28;20441;-70
2023/06/12 12:56:16;;;;;;;5.70;5.30;;;27.50;45.50;;;;;;5018850;28;20479;-71
2023/06/12 12:58:45;;;;;;;5.40;5.00;;;27.50;45.10;;;;;;5023852;28;20480;-71
2023/06/12 13:01:13;;;;;;;5.23;4.83;;;27.60;45.20;;;;;;5023240;28;20444;-70
2023/06/12 13:03:42;;;;;;;6.43;5.90;;;27.60;45.40;;;;;;5015880;28;20451;-70
2023/06/12 13:06:11;;;;;;;6.37;5.97;;;27.50;45.10;;;;;;5017921;28;21095;-71